Keshan, China
Current Conditions -  °F | °C
As of 10:00 AM on Tuesday 23 Dec 2014 (Local Time) from ZYHB Reporting Station
Smoke Smoke  
Wind Chill:   Ceiling: Unl
Heat Index: 12°   Visibility: 3mi
Dew Point:   Wind: 7mph
Humidity: 73%   Direction: 160°SSE
Pressure: 29.94"   Gusts: NA
Location:  48.03°N, 125.86°E
Report Text: ZYHB 230200Z 16003MPS 5000 FU NSC M11/M15 Q1014 NOSIG
Loading
Personal Weather Stations






























Interactive Weather Map New forecast layout! Learn more

10-Day Weather Forecast

Advertisements
Track Severe Weather on mobile